createdAt,value
2018-09-14T00:02:28.195Z,12.30
2018-09-14T00:07:23.334Z,12.30
2018-09-14T00:12:18.242Z,12.20
2018-09-14T00:17:12.770Z,12.20
2018-09-14T00:22:07.408Z,12.20
2018-09-14T00:27:02.092Z,12.10
2018-09-14T00:31:56.663Z,12.10
2018-09-14T00:36:51.326Z,12.00
2018-09-14T00:41:45.990Z,12.00
2018-09-14T00:46:40.496Z,12.00
2018-09-14T00:51:34.968Z,11.90
2018-09-14T00:56:29.488Z,11.80
2018-09-14T01:01:25.032Z,11.80
2018-09-14T01:06:19.553Z,11.70
2018-09-14T01:11:14.263Z,11.70
2018-09-14T01:16:09.548Z,11.70
2018-09-14T01:21:04.855Z,11.70
2018-09-14T01:26:00.361Z,11.60
2018-09-14T01:30:55.192Z,11.50
2018-09-14T01:35:55.263Z,11.50
2018-09-14T01:40:50.102Z,11.40
2018-09-14T01:45:45.082Z,11.40
2018-09-14T01:50:40.184Z,11.40
2018-09-14T01:55:35.102Z,11.40
2018-09-14T02:00:29.558Z,11.40
2018-09-14T02:05:25.418Z,11.40
2018-09-14T02:10:24.126Z,11.30
2018-09-14T02:15:19.284Z,11.30
2018-09-14T02:20:13.792Z,11.30
2018-09-14T02:25:08.439Z,11.30
2018-09-14T02:30:02.945Z,11.30
2018-09-14T02:34:58.168Z,11.20
2018-09-14T02:39:53.416Z,11.20
2018-09-14T02:44:48.016Z,11.10
2018-09-14T02:49:42.481Z,11.10
2018-09-14T02:54:38.234Z,11.10
2018-09-14T02:59:33.651Z,11.00
2018-09-14T03:04:28.755Z,11.00
2018-09-14T03:09:23.283Z,11.10
2018-09-14T03:14:17.779Z,11.20
2018-09-14T03:19:12.228Z,11.20
2018-09-14T03:24:06.833Z,11.20
2018-09-14T03:29:02.300Z,11.20
2018-09-14T03:33:56.764Z,11.30
2018-09-14T03:38:51.247Z,11.20
2018-09-14T03:43:45.728Z,11.20
2018-09-14T03:48:40.233Z,11.20
2018-09-14T03:53:34.736Z,11.20
2018-09-14T03:58:29.233Z,11.00
2018-09-14T04:03:24.063Z,11.00
2018-09-14T04:08:18.524Z,10.90
2018-09-14T04:13:13.223Z,10.80
2018-09-14T04:18:07.958Z,10.70
2018-09-14T04:23:02.445Z,10.70
2018-09-14T04:27:57.392Z,10.60
2018-09-14T04:32:51.916Z,10.60
2018-09-14T04:37:46.712Z,10.60
2018-09-14T04:42:41.232Z,10.60
2018-09-14T04:47:35.768Z,10.50
2018-09-14T04:52:30.234Z,10.50
2018-09-14T04:57:24.779Z,10.50
2018-09-14T05:02:19.418Z,10.50
2018-09-14T05:07:13.918Z,10.50
2018-09-14T05:12:08.530Z,10.50
2018-09-14T05:17:03.040Z,10.50
2018-09-14T05:21:57.536Z,10.50
2018-09-14T05:26:52.018Z,10.60
2018-09-14T05:31:46.493Z,10.70
2018-09-14T05:36:40.963Z,10.80
2018-09-14T05:41:35.444Z,11.00
2018-09-14T05:46:30.003Z,11.20
2018-09-14T05:51:24.543Z,11.50
2018-09-14T05:56:19.052Z,11.90
2018-09-14T06:01:13.525Z,12.40
2018-09-14T06:06:08.615Z,12.80
2018-09-14T06:11:03.289Z,13.30
2018-09-14T06:15:57.773Z,13.70
2018-09-14T06:20:52.652Z,14.20
2018-09-14T06:25:47.213Z,14.60
2018-09-14T06:30:41.795Z,15.60
2018-09-14T06:35:36.549Z,17.70
2018-09-14T06:40:30.986Z,19.30
2018-09-14T06:45:25.535Z,20.50
2018-09-14T06:50:20.227Z,20.70
2018-09-14T06:55:14.688Z,20.10
2018-09-14T07:00:09.540Z,19.30
2018-09-14T07:05:04.179Z,18.80
2018-09-14T07:09:58.763Z,18.40
2018-09-14T07:14:53.546Z,18.10
2018-09-14T07:19:48.027Z,17.90
2018-09-14T07:24:42.836Z,17.80
2018-09-14T07:29:54.434Z,17.80
2018-09-14T07:34:48.931Z,17.90
2018-09-14T07:39:43.398Z,17.90
2018-09-14T07:44:37.874Z,18.00
2018-09-14T07:49:32.330Z,18.10
2018-09-14T07:54:26.834Z,18.30
2018-09-14T07:59:21.641Z,18.70
2018-09-14T08:04:16.212Z,19.10
2018-09-14T08:09:12.629Z,19.50
2018-09-14T08:14:07.423Z,20.00
2018-09-14T08:19:01.944Z,20.40
2018-09-14T08:23:56.525Z,20.70
2018-09-14T08:28:51.288Z,21.10
2018-09-14T08:33:45.776Z,21.60
2018-09-14T08:38:40.420Z,21.80
2018-09-14T08:43:35.224Z,22.80
2018-09-14T08:48:29.750Z,24.20
2018-09-14T08:53:24.216Z,25.00
2018-09-14T08:58:18.809Z,26.30
2018-09-14T09:03:13.658Z,28.80
2018-09-14T09:08:08.438Z,33.30
2018-09-14T09:13:03.218Z,37.60
2018-09-14T09:17:57.981Z,40.30
2018-09-14T09:22:53.126Z,42.70
2018-09-14T09:27:48.126Z,44.60
2018-09-14T09:32:43.202Z,46.50
2018-09-14T09:37:38.158Z,46.60
2018-09-14T09:42:33.404Z,45.90
2018-09-14T09:47:28.172Z,44.80
2018-09-14T09:52:23.119Z,40.50
2018-09-14T09:57:18.308Z,36.80
2018-09-14T10:02:18.291Z,33.50
2018-09-14T10:07:13.486Z,32.00
2018-09-14T10:12:08.224Z,31.70
2018-09-14T10:17:03.402Z,29.70
2018-09-14T10:21:58.150Z,28.30
2018-09-14T10:26:53.003Z,28.00
2018-09-14T10:31:47.910Z,27.20
2018-09-14T10:36:42.400Z,26.30
2018-09-14T10:41:36.902Z,25.80
2018-09-14T10:46:31.472Z,25.60
2018-09-14T10:51:26.136Z,25.40
2018-09-14T10:56:20.642Z,25.20
2018-09-14T11:01:16.238Z,25.20
2018-09-14T11:06:11.156Z,25.20
2018-09-14T11:11:05.818Z,25.10
2018-09-14T11:16:00.434Z,25.10
2018-09-14T11:20:55.244Z,25.10
2018-09-14T11:25:49.766Z,24.90
2018-09-14T11:30:44.228Z,24.90
2018-09-14T11:35:38.716Z,24.80
2018-09-14T11:40:33.231Z,24.60
2018-09-14T11:45:27.710Z,24.50
2018-09-14T11:50:22.211Z,24.70
2018-09-14T11:55:17.273Z,24.90
2018-09-14T12:00:11.827Z,24.90
2018-09-14T12:05:06.724Z,25.00
2018-09-14T12:10:01.203Z,24.80
2018-09-14T12:14:55.792Z,24.50
2018-09-14T12:19:50.274Z,24.40
2018-09-14T12:24:45.077Z,24.40
2018-09-14T12:29:39.733Z,24.10
2018-09-14T12:34:34.204Z,24.00
2018-09-14T12:39:28.672Z,23.80
2018-09-14T12:44:23.136Z,23.70
2018-09-14T12:49:17.624Z,23.60
2018-09-14T12:54:12.222Z,23.40
2018-09-14T12:59:06.919Z,23.20
2018-09-14T13:04:01.586Z,23.10
2018-09-14T13:08:56.249Z,23.20
2018-09-14T13:13:50.768Z,23.30
2018-09-14T13:18:45.236Z,23.30
2018-09-14T13:23:39.699Z,23.20
2018-09-14T13:28:34.203Z,23.00
2018-09-14T13:33:29.102Z,23.00
2018-09-14T13:38:23.590Z,22.60
2018-09-14T13:43:19.382Z,22.40
2018-09-14T13:48:13.950Z,22.50
2018-09-14T13:53:08.433Z,22.60
2018-09-14T13:58:03.065Z,22.60
2018-09-14T14:02:57.554Z,22.70
2018-09-14T14:07:52.172Z,22.90
2018-09-14T14:12:47.259Z,23.00
2018-09-14T14:17:41.812Z,22.70
2018-09-14T14:22:37.369Z,22.60
2018-09-14T14:27:32.271Z,22.50
2018-09-14T14:32:27.186Z,22.70
2018-09-14T14:37:22.140Z,22.90
2018-09-14T14:42:20.376Z,23.20
2018-09-14T14:47:15.388Z,23.10
2018-09-14T14:52:10.377Z,22.90
2018-09-14T14:57:05.383Z,22.70
2018-09-14T15:02:00.320Z,22.60
2018-09-14T15:06:55.190Z,22.90
2018-09-14T15:11:49.937Z,22.90
2018-09-14T15:16:44.960Z,22.80
2018-09-14T15:21:40.223Z,22.60
2018-09-14T15:26:35.428Z,22.50
2018-09-14T15:31:30.406Z,22.40
2018-09-14T15:36:25.313Z,22.20
2018-09-14T15:41:20.548Z,22.00
2018-09-14T15:46:16.472Z,21.70
2018-09-14T15:51:11.062Z,21.40
2018-09-14T15:56:05.720Z,21.30
2018-09-14T16:01:00.786Z,21.20
2018-09-14T16:05:55.844Z,21.10
2018-09-14T16:10:50.444Z,21.10
2018-09-14T16:15:44.902Z,21.00
2018-09-14T16:20:39.910Z,21.00
2018-09-14T16:25:34.742Z,20.80
2018-09-14T16:30:29.464Z,20.60
2018-09-14T16:35:24.133Z,20.50
2018-09-14T16:40:18.747Z,20.40
2018-09-14T16:45:13.871Z,20.30
2018-09-14T16:50:08.344Z,20.20
2018-09-14T16:55:02.916Z,20.00
2018-09-14T16:59:57.550Z,19.80
2018-09-14T17:04:52.186Z,19.60
2018-09-14T17:09:46.690Z,19.40
2018-09-14T17:14:41.232Z,19.20
2018-09-14T17:19:36.214Z,19.00
2018-09-14T17:24:30.844Z,18.80
2018-09-14T17:29:25.360Z,18.60
2018-09-14T17:34:19.877Z,18.40
2018-09-14T17:39:14.429Z,18.20
2018-09-14T17:44:09.069Z,18.00
2018-09-14T17:49:04.730Z,17.70
2018-09-14T17:53:59.538Z,17.50
2018-09-14T17:58:54.286Z,17.30
2018-09-14T18:03:48.766Z,17.10
2018-09-14T18:08:43.226Z,17.00
2018-09-14T18:13:38.231Z,16.80
2018-09-14T18:18:32.866Z,16.80
2018-09-14T18:23:27.568Z,16.70
2018-09-14T18:28:22.067Z,16.60
2018-09-14T18:33:17.055Z,16.60
2018-09-14T18:38:11.567Z,16.60
2018-09-14T18:43:06.275Z,16.70
2018-09-14T18:48:00.740Z,16.80
2018-09-14T18:52:55.444Z,16.80
2018-09-14T18:57:50.016Z,16.80
2018-09-14T19:02:44.539Z,16.80
2018-09-14T19:07:39.332Z,16.70
2018-09-14T19:12:34.292Z,16.50
2018-09-14T19:17:28.856Z,16.30
2018-09-14T19:22:23.534Z,16.10
2018-09-14T19:27:19.665Z,16.00
2018-09-14T19:32:15.223Z,16.00
2018-09-14T19:37:12.135Z,16.00
2018-09-14T19:42:06.701Z,16.10
2018-09-14T19:47:01.314Z,16.20
2018-09-14T19:51:55.893Z,16.20
2018-09-14T19:56:50.652Z,16.10
2018-09-14T20:01:45.144Z,16.00
2018-09-14T20:06:39.600Z,16.00
2018-09-14T20:11:34.739Z,15.90
2018-09-14T20:16:29.664Z,15.70
2018-09-14T20:21:24.180Z,15.60
2018-09-14T20:26:51.755Z,15.40
2018-09-14T20:31:47.652Z,15.20
2018-09-14T20:36:42.180Z,15.10
2018-09-14T20:41:36.915Z,15.20
2018-09-14T20:46:31.484Z,15.30
2018-09-14T20:51:25.994Z,15.40
2018-09-14T20:56:20.481Z,15.50
2018-09-14T21:01:15.190Z,15.50
2018-09-14T21:06:09.880Z,15.60
2018-09-14T21:11:04.518Z,15.70
2018-09-14T21:15:59.005Z,15.80
2018-09-14T21:20:53.495Z,15.80
2018-09-14T21:25:48.127Z,15.80
2018-09-14T21:30:42.682Z,15.90
2018-09-14T21:35:37.187Z,15.90
2018-09-14T21:40:31.862Z,15.90
2018-09-14T21:45:27.646Z,16.00
2018-09-14T21:50:22.142Z,16.00
2018-09-14T21:55:16.641Z,16.00
2018-09-14T22:00:17.262Z,16.10
2018-09-14T22:05:12.051Z,16.10
2018-09-14T22:10:07.169Z,16.10
2018-09-14T22:15:01.902Z,16.10
2018-09-14T22:19:56.690Z,16.10
2018-09-14T22:24:51.180Z,16.10
2018-09-14T22:29:45.937Z,16.10
2018-09-14T22:34:40.576Z,16.10
2018-09-14T22:39:35.097Z,16.10
2018-09-14T22:44:29.639Z,16.10
2018-09-14T22:49:24.155Z,16.10
2018-09-14T22:54:18.773Z,16.10
2018-09-14T22:59:13.445Z,16.10
2018-09-14T23:04:08.225Z,16.10
2018-09-14T23:09:02.839Z,16.10
2018-09-14T23:13:57.836Z,16.10
2018-09-14T23:18:52.274Z,16.10
2018-09-14T23:23:46.717Z,16.10
2018-09-14T23:28:41.201Z,16.10
2018-09-14T23:33:35.995Z,16.20
2018-09-14T23:38:30.789Z,16.20
2018-09-14T23:43:25.277Z,16.20
2018-09-14T23:48:19.871Z,16.30
2018-09-14T23:53:14.440Z,16.30
2018-09-14T23:58:09.424Z,16.30
